Hovedside
METAR-TAF:

METAR-TAF

Lufthavner :

Kolkata internasjonale lufthavn

Kolkata, India

breddegrad: 22-39N, lengdegrad: 088-27E, høyde over havet: 4 m

Gjeldene værobservasjon

Denne rapporten ble laget for 39 minutter siden, klokken 19:00 UTC
Flau vind
Temperatur 23°C
Luftfuktighet 89%
Trykk 1012 hPa
Sikt: 2800 m
dis

METAR: VECC 151900Z 00000KT 2800 HZ NSC 23/21 Q1012 NOSIG

Tid: 01:09 (19:39 UTC)

Varsel

Denne rapporten ble laget for 2 timer og 39 minutter siden, klokken 17:00 UTC
Varsel gyldig fra 15. klokken 18 UTC til 16. klokken 03 UTC
Vind kt fra Nord
Sikt: 3000 m
dis
Blir
fra 15. klokken 20 UTC til 15. klokken 22 UTC
Sikt: 2200 m
dis
Blir
fra 15. klokken 23 UTC til 16. klokken 01 UTC
Sikt: 1400 m
dis
Blir
fra 16. klokken 02 UTC til 16. klokken 03 UTC
Vind 5 kt fra Nord-nordvest
Sikt: 2500 m
Få skyer i en høyde av 2000 ft
dis

TAF: VECC 151700Z 1518/1603 00000KT 3000 HZ NSC BECMG 1520/1522 2200 BR BECMG 1523/1601 1400 BR BECMG 1602/1603 34005KT 2500 HZ FEW020

Værobservasjoner og værvarsel for over 4000 flyplasser (METAR- og TAF-rapporter).

Tilgjengelige stasjoner er representert av de røde og gule prikkene på kartet.

Hold musepekeren over prikken for å se navnet på stasjonen.

Klikk så for å se værobservasjoner og -varsler.

For å forandre kartet kan du klikke på den grønne knappen med svart kryss for å zoome inn, på den grønne knappen med strek for å zoome ut, eller på de grønne pilene for å se tilstøtende kart.


METAR-TAF: